Language selection

Features

My Weather Profile Weather Topics  | 

Juan de Fuca Strait - east entrance: Past 24 Hour Conditions

 

English Bay - 46304

06:00 AM PST 28 November 2021Buoy position: 49.3N 123.36W
Disclaimer

This table is a summary of hourly weather conditions for the past 24 hours.
Please note that these observations might not always be representative of weather conditions over their associated marine area.

Date / Time
(PST)
Wind(knots) Wave height(m) Wave period(s) Pressure(kPa) Air tempC) Water tempC)
28 November 2021
6:00 NNE 10 gust 12 0.2 3.0 101.3 8 9
5:00 NE 10 gust 16 0.2 3.2 101.3 9 9
4:00 NNE 13 gust 15 0.2 2.3 101.3 8 9
3:00 NNE 14 gust 17 0.2 2.9 101.3 8 9
2:00 NNE 13 gust 15 0.3 3.6 101.2 8 8
1:00 NNE 12 gust 15 0.3 3.8 101.2 8 8
0:00 NNE 15 gust 18 0.3 3.6 101.1 8 8
27 November 2021
23:00 NNE 16 gust 19 0.2 2.9 101.0 8 8
22:00 NNE 18 gust 24 0.3 2.2 101.0 8 8
21:00 NNE 18 gust 23 0.3 2.3 101.0 8 8
20:00 NNE 17 gust 22 0.2 2.3 101.0 8 8
19:00 NNE 20 gust 23 0.1 2.5 101.0 7 9
18:00 NNE 19 gust 24 0.4 2.2 101.0 8 9
17:00 NNE 23 gust 28 0.5 2.5 101.0 7 9
16:00 NNE 24 gust 29 0.5 2.4 101.1 7 9
15:00 NNE 26 gust 31 0.6 2.5 101.1 7 9
14:00 NNE 22 gust 28 0.6 2.5 101.3 8 9
13:00 NNE 22 gust 29 0.5 2.5 101.4 7 9
12:00 NNE 24 gust 32 0.6 2.6 101.5 7 9
11:00 NNE 23 gust 27 0.6 2.5 101.6 7 9
10:00 NNE 22 gust 26 0.5 2.5 101.6 7 9
9:00 NNE 21 gust 26 0.5 2.4 101.6 7 9
8:00 NNE 21 gust 25 0.5 2.5 101.7 7 9
7:00 NNE 19 gust 24 0.4 2.3 101.8 7 9
6:00 NNE 17 gust 21 0.3 2.1 101.9 8 9

Zoom-in to make a selection

Map of Pacific - Georgia Basin marine weather areas Sentry Shoal - 46131 Halibut Bank - 46146 La Perouse Bank - 46206 Georgia Strait - 46303 English Bay - 46304 Discovery Island Esquimalt Harbour Kelp Reefs Malahat Race Rocks Lightstation Saturna Island Sheringham Point University of Victoria Victoria Gonzales Victoria Int'l Airport Ballenas Islands Campbell River Airport Comox Airport Entrance Island Fanny Island Nanaimo Airport Sisters Islets Estevan Point Port Alberni Tofino Airport Grief Point Howe Sound - Pam Rocks Powell River Airport Sechelt Squamish Airport Point Atkinson Sand Heads Lightstation Tsawwassen Ferry Terminal Vancouver Int'l Airport Vancouver Harbour West Vancouver
Legend:
buoy Buoy
land station Land Station

Pacific - Georgia Basin Area

Another Region

What we are doing

Date modified: